Salt Lake City, Utah
Traffic Map
Current Weather Conditions
Salt Lake City, Utah
Overcast Light Rain
Overcast
53°
Feels Like: 53°
Wind Chill: 53° Ceiling: 5500
Heat Index: 53° Visibility: 10mi
Dew Point: 49° Wind: 7mph
Humidity: 86% Direction: 110° (ESE)
Pressure: 29.97in Gusts: 0mph
Raw Report DataKSLC 301153Z 11006KT 10SM -RA OVC055 12/09 A2997 RMK AO2 RAB1056 SLP121 P0000 60000 T01170094 10122 20106 56007
Traffic Incident Summary
Active as of:
Severity:
Category:
InformationThere was an issue retrieving the traffic information for this location. Please try a different location or try again shortly.
Advertisements
Track Severe Weather on mobile